CPA451 RCTP-VHHH
Flight info
| Callsign | CPA451 |
|---|---|
| Flight time | 1h 16m |
| Altitude | 38000 |
| Route | CHALI T3 MKG A1 ELATO V522 ABBEY |
| Aircraft | A346/H-SDE2E3FGHIJ3J4J5M1RWXY/LB1D1 |
Departure
| Time | 2026-05-07 13:40 |
|---|---|
| Airport | Taiwan Taoyuan International Airport (RCTP) |
Arrival
| Time | 2026-05-07 14:56 |
|---|---|
| Airport | Hong Kong International Airport (VHHH) |
| Time | Latitude | Longitude | Altitude | Speed | Heading |
|---|---|---|---|---|---|
| 2026-05-07 13:08 | 25.07718 | 121.23605 | 121 ft | 0 kts | 319° |
| 2026-05-07 13:29 | 25.07708 | 121.23613 | 122 ft | 2 kts | 319° |
| 2026-05-07 13:29 | 25.07697 | 121.23624 | 122 ft | 2 kts | 319° |
| 2026-05-07 13:29 | 25.07686 | 121.23634 | 122 ft | 1 kts | 319° |
| 2026-05-07 13:29 | 25.07678 | 121.23642 | 122 ft | 2 kts | 313° |
| 2026-05-07 13:30 | 25.07669 | 121.23656 | 122 ft | 2 kts | 295° |
| 2026-05-07 13:30 | 25.07664 | 121.23671 | 122 ft | 2 kts | 281° |
| 2026-05-07 13:30 | 25.07663 | 121.23688 | 122 ft | 2 kts | 267° |
| 2026-05-07 13:30 | 25.07665 | 121.23704 | 122 ft | 2 kts | 252° |
| 2026-05-07 13:31 | 25.07671 | 121.23720 | 122 ft | 2 kts | 238° |
| 2026-05-07 13:31 | 25.07677 | 121.23729 | 122 ft | 1 kts | 229° |
| 2026-05-07 13:31 | 25.07678 | 121.23731 | 122 ft | 0 kts | 228° |
| 2026-05-07 13:33 | 25.07676 | 121.23728 | 121 ft | 2 kts | 228° |
| 2026-05-07 13:34 | 25.07656 | 121.23704 | 121 ft | 6 kts | 216° |
| 2026-05-07 13:34 | 25.07544 | 121.23741 | 121 ft | 13 kts | 139° |
| 2026-05-07 13:34 | 25.07500 | 121.23782 | 121 ft | 5 kts | 150° |
| 2026-05-07 13:35 | 25.07459 | 121.23770 | 121 ft | 9 kts | 217° |
| 2026-05-07 13:35 | 25.07407 | 121.23712 | 121 ft | 12 kts | 229° |
| 2026-05-07 13:35 | 25.07344 | 121.23633 | 121 ft | 15 kts | 229° |
| 2026-05-07 13:35 | 25.07270 | 121.23539 | 121 ft | 17 kts | 229° |
| 2026-05-07 13:36 | 25.07186 | 121.23432 | 121 ft | 19 kts | 229° |
| 2026-05-07 13:36 | 25.07092 | 121.23313 | 121 ft | 21 kts | 229° |
| 2026-05-07 13:36 | 25.06991 | 121.23184 | 121 ft | 23 kts | 229° |
| 2026-05-07 13:36 | 25.06883 | 121.23045 | 121 ft | 25 kts | 229° |
| 2026-05-07 13:37 | 25.06765 | 121.22896 | 121 ft | 27 kts | 229° |
| 2026-05-07 13:37 | 25.06639 | 121.22737 | 121 ft | 28 kts | 229° |
| 2026-05-07 13:37 | 25.06507 | 121.22569 | 121 ft | 30 kts | 229° |
| 2026-05-07 13:37 | 25.06370 | 121.22392 | 121 ft | 31 kts | 229° |
| 2026-05-07 13:38 | 25.06278 | 121.22276 | 121 ft | 12 kts | 229° |
| 2026-05-07 13:38 | 25.06223 | 121.22244 | 121 ft | 10 kts | 172° |
| 2026-05-07 13:38 | 25.06155 | 121.22293 | 121 ft | 13 kts | 136° |
| 2026-05-07 13:38 | 25.06112 | 121.22346 | 121 ft | 6 kts | 103° |
| 2026-05-07 13:39 | 25.06129 | 121.22405 | 121 ft | 12 kts | 53° |
| 2026-05-07 13:39 | 25.06272 | 121.22591 | 121 ft | 69 kts | 49° |
| 2026-05-07 13:39 | 25.06766 | 121.23216 | 121 ft | 144 kts | 49° |
| 2026-05-07 13:39 | 25.07556 | 121.24219 | 286 ft | 189 kts | 49° |
| 2026-05-07 13:40 | 25.08415 | 121.25318 | 999 ft | 193 kts | 50° |
| 2026-05-07 13:40 | 25.09272 | 121.26427 | 1820 ft | 192 kts | 50° |
| 2026-05-07 13:40 | 25.10150 | 121.27578 | 2380 ft | 202 kts | 50° |
| 2026-05-07 13:40 | 25.11099 | 121.28784 | 2923 ft | 215 kts | 50° |
| 2026-05-07 13:41 | 25.12141 | 121.30026 | 3475 ft | 228 kts | 39° |
| 2026-05-07 13:41 | 25.13651 | 121.30646 | 3942 ft | 244 kts | 360° |
| 2026-05-07 13:41 | 25.15329 | 121.30172 | 4449 ft | 258 kts | 325° |
| 2026-05-07 13:41 | 25.16589 | 121.28746 | 5109 ft | 266 kts | 296° |
| 2026-05-07 13:42 | 25.16999 | 121.26788 | 5929 ft | 270 kts | 264° |
| 2026-05-07 13:42 | 25.16410 | 121.24861 | 6876 ft | 271 kts | 238° |
| 2026-05-07 13:42 | 25.15366 | 121.23164 | 7900 ft | 270 kts | 237° |
| 2026-05-07 13:42 | 25.14343 | 121.21425 | 8746 ft | 275 kts | 238° |
| 2026-05-07 13:43 | 25.13309 | 121.19651 | 9579 ft | 279 kts | 239° |
| 2026-05-07 13:43 | 25.12267 | 121.17831 | 10417 ft | 283 kts | 239° |
| 2026-05-07 13:43 | 25.11197 | 121.15958 | 10945 ft | 298 kts | 239° |
| 2026-05-07 13:43 | 25.10055 | 121.13971 | 11389 ft | 316 kts | 239° |
| 2026-05-07 13:44 | 25.08840 | 121.11876 | 11833 ft | 333 kts | 239° |
| 2026-05-07 13:44 | 25.07551 | 121.09673 | 12240 ft | 351 kts | 238° |
| 2026-05-07 13:44 | 25.06190 | 121.07364 | 12619 ft | 368 kts | 238° |
| 2026-05-07 13:44 | 25.04776 | 121.04950 | 13126 ft | 380 kts | 238° |
| 2026-05-07 13:45 | 25.03337 | 121.02467 | 13923 ft | 383 kts | 238° |
| 2026-05-07 13:45 | 25.01892 | 120.99995 | 14692 ft | 386 kts | 238° |
| 2026-05-07 13:45 | 25.00437 | 120.97513 | 15426 ft | 390 kts | 238° |
| 2026-05-07 13:45 | 24.98963 | 120.94999 | 16109 ft | 394 kts | 238° |
| 2026-05-07 13:46 | 24.97474 | 120.92459 | 16808 ft | 397 kts | 238° |
| 2026-05-07 13:46 | 24.95973 | 120.89896 | 17515 ft | 400 kts | 238° |
| 2026-05-07 13:46 | 24.94460 | 120.87315 | 18157 ft | 403 kts | 238° |
| 2026-05-07 13:46 | 24.92919 | 120.84686 | 18759 ft | 408 kts | 238° |
| 2026-05-07 13:47 | 24.91376 | 120.82055 | 19353 ft | 412 kts | 239° |
| 2026-05-07 13:47 | 24.89815 | 120.79396 | 19931 ft | 416 kts | 239° |
| 2026-05-07 13:47 | 24.88229 | 120.76695 | 20509 ft | 419 kts | 239° |
| 2026-05-07 13:47 | 24.86630 | 120.73972 | 21056 ft | 423 kts | 239° |
| 2026-05-07 13:48 | 24.85027 | 120.71246 | 21621 ft | 426 kts | 239° |
| 2026-05-07 13:48 | 24.83402 | 120.68482 | 22153 ft | 430 kts | 239° |
| 2026-05-07 13:48 | 24.81795 | 120.65750 | 22691 ft | 433 kts | 239° |
| 2026-05-07 13:48 | 24.80634 | 120.63779 | 23066 ft | 435 kts | 239° |
| 2026-05-07 13:49 | 24.78542 | 120.60230 | 23719 ft | 440 kts | 239° |
| 2026-05-07 13:49 | 24.76886 | 120.57422 | 24244 ft | 443 kts | 239° |
| 2026-05-07 13:49 | 24.75177 | 120.54590 | 24742 ft | 447 kts | 236° |
| 2026-05-07 13:49 | 24.73191 | 120.51924 | 25258 ft | 453 kts | 230° |
| 2026-05-07 13:50 | 24.70922 | 120.49503 | 25766 ft | 458 kts | 224° |
| 2026-05-07 13:50 | 24.68392 | 120.47352 | 26250 ft | 463 kts | 218° |
| 2026-05-07 13:50 | 24.65719 | 120.45301 | 26734 ft | 467 kts | 218° |
| 2026-05-07 13:50 | 24.63017 | 120.43260 | 27206 ft | 471 kts | 217° |
| 2026-05-07 13:51 | 24.60286 | 120.41204 | 27659 ft | 475 kts | 218° |
| 2026-05-07 13:51 | 24.57552 | 120.39144 | 28128 ft | 478 kts | 218° |
| 2026-05-07 13:51 | 24.54801 | 120.37068 | 28692 ft | 478 kts | 218° |
| 2026-05-07 13:51 | 24.52063 | 120.35000 | 29422 ft | 475 kts | 218° |
| 2026-05-07 13:52 | 24.49351 | 120.32951 | 30097 ft | 474 kts | 218° |
| 2026-05-07 13:52 | 24.46618 | 120.30889 | 30772 ft | 472 kts | 218° |
| 2026-05-07 13:52 | 24.43916 | 120.28833 | 31436 ft | 471 kts | 219° |
| 2026-05-07 13:52 | 24.41232 | 120.26750 | 32068 ft | 470 kts | 219° |
| 2026-05-07 13:53 | 24.38569 | 120.24674 | 32699 ft | 469 kts | 219° |
| 2026-05-07 13:53 | 24.35904 | 120.22598 | 33351 ft | 468 kts | 219° |
| 2026-05-07 13:53 | 24.33248 | 120.20533 | 33976 ft | 468 kts | 219° |
| 2026-05-07 13:53 | 24.30586 | 120.18466 | 34610 ft | 467 kts | 220° |
| 2026-05-07 13:54 | 24.27909 | 120.16388 | 35174 ft | 467 kts | 220° |
| 2026-05-07 13:54 | 24.25258 | 120.14331 | 35704 ft | 466 kts | 220° |
| 2026-05-07 13:54 | 24.22609 | 120.12276 | 36187 ft | 467 kts | 221° |
| 2026-05-07 13:54 | 24.19945 | 120.10212 | 36606 ft | 468 kts | 220° |
| 2026-05-07 13:55 | 24.17283 | 120.08150 | 37047 ft | 468 kts | 221° |
| 2026-05-07 13:55 | 24.14623 | 120.06091 | 37488 ft | 468 kts | 221° |
| 2026-05-07 13:55 | 24.11961 | 120.04034 | 37879 ft | 468 kts | 221° |
| 2026-05-07 13:55 | 24.09279 | 120.01962 | 38237 ft | 469 kts | 221° |
| 2026-05-07 13:56 | 24.06603 | 119.99895 | 38546 ft | 470 kts | 221° |
| 2026-05-07 13:56 | 24.03928 | 119.97827 | 38839 ft | 472 kts | 221° |
| 2026-05-07 13:56 | 24.01240 | 119.95751 | 39147 ft | 473 kts | 221° |
| 2026-05-07 13:56 | 23.98538 | 119.93666 | 39435 ft | 474 kts | 221° |
| 2026-05-07 13:57 | 23.95835 | 119.91585 | 39683 ft | 476 kts | 220° |
| 2026-05-07 13:57 | 23.93127 | 119.89500 | 39890 ft | 478 kts | 220° |
| 2026-05-07 13:57 | 23.90468 | 119.87454 | 39904 ft | 480 kts | 220° |
| 2026-05-07 13:58 | 23.84997 | 119.83251 | 39908 ft | 480 kts | 220° |
| 2026-05-07 13:58 | 23.79522 | 119.79050 | 39909 ft | 480 kts | 220° |
| 2026-05-07 13:59 | 23.74056 | 119.74854 | 39910 ft | 480 kts | 220° |
| 2026-05-07 13:59 | 23.68557 | 119.70638 | 39912 ft | 480 kts | 221° |
| 2026-05-07 14:00 | 23.63349 | 119.66101 | 39917 ft | 475 kts | 227° |
| 2026-05-07 14:00 | 23.58732 | 119.60999 | 39918 ft | 470 kts | 234° |
| 2026-05-07 14:01 | 23.54712 | 119.55361 | 39919 ft | 466 kts | 241° |
| 2026-05-07 14:01 | 23.51223 | 119.49429 | 39917 ft | 464 kts | 243° |
| 2026-05-07 14:02 | 23.47784 | 119.43482 | 39915 ft | 465 kts | 243° |
| 2026-05-07 14:02 | 23.44332 | 119.37530 | 39911 ft | 465 kts | 243° |
| 2026-05-07 14:03 | 23.40870 | 119.31574 | 39910 ft | 466 kts | 242° |
| 2026-05-07 14:03 | 23.37407 | 119.25623 | 39907 ft | 465 kts | 242° |
| 2026-05-07 14:04 | 23.33946 | 119.19687 | 39904 ft | 465 kts | 242° |
| 2026-05-07 14:04 | 23.30473 | 119.13733 | 39905 ft | 465 kts | 242° |
| 2026-05-07 14:05 | 23.27003 | 119.07796 | 39906 ft | 465 kts | 242° |
| 2026-05-07 14:05 | 23.23532 | 119.01860 | 39905 ft | 465 kts | 242° |
| 2026-05-07 14:06 | 23.20054 | 118.95920 | 39907 ft | 465 kts | 242° |
| 2026-05-07 14:06 | 23.16568 | 118.89970 | 39906 ft | 464 kts | 242° |
| 2026-05-07 14:07 | 23.13092 | 118.84049 | 39908 ft | 465 kts | 242° |
| 2026-05-07 14:07 | 23.09616 | 118.78135 | 39907 ft | 466 kts | 242° |
| 2026-05-07 14:08 | 23.06111 | 118.72175 | 39913 ft | 466 kts | 242° |
| 2026-05-07 14:08 | 23.02618 | 118.66243 | 39920 ft | 466 kts | 242° |
| 2026-05-07 14:09 | 22.99120 | 118.60312 | 39920 ft | 466 kts | 242° |
| 2026-05-07 14:09 | 22.95624 | 118.54390 | 39922 ft | 466 kts | 242° |
| 2026-05-07 14:10 | 22.92104 | 118.48460 | 39924 ft | 465 kts | 242° |
| 2026-05-07 14:10 | 22.88590 | 118.42562 | 39930 ft | 466 kts | 242° |
| 2026-05-07 14:11 | 22.85086 | 118.36682 | 39928 ft | 465 kts | 242° |
| 2026-05-07 14:11 | 22.81562 | 118.30773 | 39929 ft | 466 kts | 242° |
| 2026-05-07 14:12 | 22.78031 | 118.24858 | 39925 ft | 467 kts | 242° |
| 2026-05-07 14:12 | 22.74490 | 118.18934 | 39925 ft | 467 kts | 242° |
| 2026-05-07 14:13 | 22.70947 | 118.13015 | 39930 ft | 468 kts | 242° |
| 2026-05-07 14:13 | 22.67390 | 118.07077 | 39924 ft | 467 kts | 242° |
| 2026-05-07 14:14 | 22.63853 | 118.01178 | 39928 ft | 467 kts | 242° |
| 2026-05-07 14:14 | 22.60318 | 117.95290 | 39919 ft | 467 kts | 242° |
| 2026-05-07 14:15 | 22.56782 | 117.89349 | 39918 ft | 467 kts | 242° |
| 2026-05-07 14:15 | 22.53268 | 117.83430 | 39920 ft | 468 kts | 242° |
| 2026-05-07 14:16 | 22.49741 | 117.77498 | 39915 ft | 467 kts | 242° |
| 2026-05-07 14:16 | 22.46221 | 117.71587 | 39920 ft | 467 kts | 242° |
| 2026-05-07 14:17 | 22.42682 | 117.65651 | 39919 ft | 467 kts | 242° |
| 2026-05-07 14:17 | 22.39157 | 117.59741 | 39916 ft | 467 kts | 243° |
| 2026-05-07 14:18 | 22.36192 | 117.53543 | 39914 ft | 462 kts | 252° |
| 2026-05-07 14:18 | 22.34211 | 117.46976 | 39915 ft | 457 kts | 261° |
| 2026-05-07 14:19 | 22.33231 | 117.40236 | 39909 ft | 452 kts | 269° |
| 2026-05-07 14:19 | 22.33032 | 117.33483 | 39910 ft | 451 kts | 272° |
| 2026-05-07 14:20 | 22.32917 | 117.26732 | 39910 ft | 450 kts | 272° |
| 2026-05-07 14:20 | 22.32797 | 117.19961 | 39911 ft | 450 kts | 271° |
| 2026-05-07 14:21 | 22.32672 | 117.13214 | 39911 ft | 449 kts | 271° |
| 2026-05-07 14:21 | 22.32542 | 117.06467 | 39909 ft | 448 kts | 271° |
| 2026-05-07 14:22 | 22.32407 | 116.99723 | 39909 ft | 448 kts | 271° |
| 2026-05-07 14:22 | 22.32269 | 116.93005 | 39909 ft | 448 kts | 271° |
| 2026-05-07 14:23 | 22.32131 | 116.86275 | 39908 ft | 449 kts | 271° |
| 2026-05-07 14:23 | 22.31989 | 116.79528 | 39909 ft | 450 kts | 271° |
| 2026-05-07 14:24 | 22.31845 | 116.72774 | 39911 ft | 449 kts | 271° |
| 2026-05-07 14:24 | 22.31695 | 116.66026 | 39911 ft | 450 kts | 271° |
| 2026-05-07 14:25 | 22.31544 | 116.59274 | 39911 ft | 450 kts | 271° |
| 2026-05-07 14:25 | 22.31390 | 116.52486 | 39910 ft | 451 kts | 271° |
| 2026-05-07 14:26 | 22.31233 | 116.45719 | 39911 ft | 450 kts | 271° |
| 2026-05-07 14:26 | 22.31075 | 116.38971 | 39914 ft | 450 kts | 271° |
| 2026-05-07 14:27 | 22.30912 | 116.32257 | 39913 ft | 450 kts | 271° |
| 2026-05-07 14:27 | 22.30745 | 116.25482 | 39912 ft | 450 kts | 271° |
| 2026-05-07 14:28 | 22.30576 | 116.18649 | 39910 ft | 451 kts | 271° |
| 2026-05-07 14:28 | 22.30404 | 116.11838 | 39899 ft | 451 kts | 270° |
| 2026-05-07 14:28 | 22.30317 | 116.08448 | 39315 ft | 454 kts | 271° |
| 2026-05-07 14:29 | 22.30227 | 116.05044 | 38572 ft | 453 kts | 271° |
| 2026-05-07 14:29 | 22.30138 | 116.01654 | 37939 ft | 451 kts | 271° |
| 2026-05-07 14:29 | 22.30050 | 115.98283 | 37315 ft | 449 kts | 271° |
| 2026-05-07 14:29 | 22.29959 | 115.94881 | 36682 ft | 448 kts | 271° |
| 2026-05-07 14:30 | 22.29870 | 115.91525 | 36045 ft | 447 kts | 271° |
| 2026-05-07 14:30 | 22.29779 | 115.88175 | 35377 ft | 447 kts | 271° |
| 2026-05-07 14:30 | 22.29689 | 115.84828 | 34731 ft | 446 kts | 271° |
| 2026-05-07 14:30 | 22.29598 | 115.81471 | 34088 ft | 446 kts | 271° |
| 2026-05-07 14:31 | 22.29510 | 115.78119 | 33443 ft | 445 kts | 271° |
| 2026-05-07 14:31 | 22.29422 | 115.74784 | 32792 ft | 445 kts | 270° |
| 2026-05-07 14:31 | 22.29332 | 115.71427 | 32166 ft | 445 kts | 270° |
| 2026-05-07 14:31 | 22.29244 | 115.68096 | 31520 ft | 446 kts | 270° |
| 2026-05-07 14:32 | 22.29156 | 115.64738 | 30847 ft | 448 kts | 270° |
| 2026-05-07 14:32 | 22.29066 | 115.61372 | 30147 ft | 450 kts | 270° |
| 2026-05-07 14:32 | 22.28974 | 115.57986 | 29423 ft | 453 kts | 270° |
| 2026-05-07 14:32 | 22.28881 | 115.54575 | 28679 ft | 455 kts | 270° |
| 2026-05-07 14:33 | 22.28786 | 115.51172 | 27944 ft | 457 kts | 270° |
| 2026-05-07 14:33 | 22.28690 | 115.47741 | 27432 ft | 453 kts | 270° |
| 2026-05-07 14:33 | 22.28592 | 115.44347 | 26879 ft | 451 kts | 270° |
| 2026-05-07 14:33 | 22.28494 | 115.40972 | 26361 ft | 448 kts | 270° |
| 2026-05-07 14:34 | 22.28397 | 115.37624 | 25799 ft | 446 kts | 270° |
| 2026-05-07 14:34 | 22.28300 | 115.34306 | 25272 ft | 442 kts | 269° |
| 2026-05-07 14:34 | 22.28205 | 115.31053 | 24778 ft | 438 kts | 269° |
| 2026-05-07 14:34 | 22.28107 | 115.27775 | 24316 ft | 434 kts | 269° |
| 2026-05-07 14:35 | 22.28009 | 115.24513 | 23857 ft | 430 kts | 269° |
| 2026-05-07 14:35 | 22.27911 | 115.21315 | 23413 ft | 426 kts | 269° |
| 2026-05-07 14:35 | 22.27812 | 115.18139 | 22973 ft | 422 kts | 269° |
| 2026-05-07 14:35 | 22.27713 | 115.14990 | 22530 ft | 418 kts | 269° |
| 2026-05-07 14:36 | 22.27613 | 115.11862 | 22079 ft | 415 kts | 269° |
| 2026-05-07 14:36 | 22.27514 | 115.08752 | 21621 ft | 413 kts | 269° |
| 2026-05-07 14:36 | 22.27415 | 115.05664 | 21158 ft | 410 kts | 269° |
| 2026-05-07 14:36 | 22.27316 | 115.02584 | 20699 ft | 407 kts | 269° |
| 2026-05-07 14:37 | 22.27218 | 114.99543 | 20226 ft | 405 kts | 269° |
| 2026-05-07 14:37 | 22.26989 | 114.93506 | 19317 ft | 400 kts | 266° |
| 2026-05-07 14:37 | 22.26716 | 114.90523 | 18857 ft | 398 kts | 263° |
| 2026-05-07 14:38 | 22.26326 | 114.87583 | 18426 ft | 395 kts | 262° |
| 2026-05-07 14:38 | 22.25923 | 114.84663 | 17977 ft | 392 kts | 262° |
| 2026-05-07 14:38 | 22.25515 | 114.81726 | 17528 ft | 390 kts | 262° |
| 2026-05-07 14:38 | 22.25113 | 114.78838 | 17079 ft | 388 kts | 262° |
| 2026-05-07 14:39 | 22.24712 | 114.75964 | 16624 ft | 386 kts | 262° |
| 2026-05-07 14:39 | 22.24314 | 114.73105 | 16156 ft | 385 kts | 262° |
| 2026-05-07 14:39 | 22.23917 | 114.70262 | 15694 ft | 383 kts | 262° |
| 2026-05-07 14:39 | 22.23522 | 114.67425 | 15235 ft | 381 kts | 262° |
| 2026-05-07 14:40 | 22.23128 | 114.64605 | 14775 ft | 380 kts | 262° |
| 2026-05-07 14:40 | 22.22733 | 114.61778 | 14314 ft | 378 kts | 262° |
| 2026-05-07 14:40 | 22.22343 | 114.58990 | 13853 ft | 376 kts | 262° |
| 2026-05-07 14:40 | 22.21953 | 114.56212 | 13398 ft | 373 kts | 262° |
| 2026-05-07 14:41 | 22.21564 | 114.53446 | 12940 ft | 371 kts | 262° |
| 2026-05-07 14:41 | 22.21177 | 114.50697 | 12480 ft | 369 kts | 262° |
| 2026-05-07 14:41 | 22.20794 | 114.47975 | 12029 ft | 367 kts | 262° |
| 2026-05-07 14:41 | 22.20411 | 114.45256 | 11574 ft | 365 kts | 262° |
| 2026-05-07 14:42 | 22.20028 | 114.42543 | 11120 ft | 362 kts | 262° |
| 2026-05-07 14:42 | 22.19649 | 114.39862 | 10808 ft | 355 kts | 262° |
| 2026-05-07 14:42 | 22.19283 | 114.37274 | 10691 ft | 341 kts | 262° |
| 2026-05-07 14:42 | 22.18931 | 114.34786 | 10565 ft | 328 kts | 261° |
| 2026-05-07 14:43 | 22.18594 | 114.32408 | 10437 ft | 316 kts | 261° |
| 2026-05-07 14:43 | 22.18267 | 114.30100 | 10318 ft | 305 kts | 261° |
| 2026-05-07 14:43 | 22.17951 | 114.27877 | 10208 ft | 294 kts | 261° |
| 2026-05-07 14:43 | 22.17644 | 114.25719 | 10108 ft | 283 kts | 261° |
| 2026-05-07 14:44 | 22.17348 | 114.23647 | 10014 ft | 275 kts | 261° |
| 2026-05-07 14:44 | 22.17058 | 114.21610 | 9780 ft | 274 kts | 262° |
| 2026-05-07 14:44 | 22.16767 | 114.19570 | 9444 ft | 275 kts | 262° |
| 2026-05-07 14:44 | 22.16476 | 114.17530 | 9121 ft | 275 kts | 261° |
| 2026-05-07 14:45 | 22.16185 | 114.15490 | 8808 ft | 275 kts | 262° |
| 2026-05-07 14:45 | 22.15894 | 114.13452 | 8496 ft | 274 kts | 261° |
| 2026-05-07 14:45 | 22.15601 | 114.11407 | 8186 ft | 274 kts | 261° |
| 2026-05-07 14:45 | 22.15311 | 114.09382 | 7879 ft | 273 kts | 261° |
| 2026-05-07 14:46 | 22.15022 | 114.07361 | 7567 ft | 273 kts | 261° |
| 2026-05-07 14:46 | 22.14733 | 114.05351 | 7262 ft | 272 kts | 262° |
| 2026-05-07 14:46 | 22.14445 | 114.03341 | 6954 ft | 271 kts | 261° |
| 2026-05-07 14:46 | 22.14157 | 114.01333 | 6656 ft | 271 kts | 261° |
| 2026-05-07 14:47 | 22.13869 | 113.99329 | 6352 ft | 270 kts | 261° |
| 2026-05-07 14:47 | 22.13578 | 113.97305 | 6041 ft | 270 kts | 261° |
| 2026-05-07 14:47 | 22.13288 | 113.95298 | 5729 ft | 270 kts | 261° |
| 2026-05-07 14:47 | 22.13000 | 113.93299 | 5426 ft | 269 kts | 261° |
| 2026-05-07 14:48 | 22.12712 | 113.91312 | 5120 ft | 269 kts | 261° |
| 2026-05-07 14:48 | 22.12425 | 113.89322 | 4816 ft | 268 kts | 261° |
| 2026-05-07 14:48 | 22.12137 | 113.87332 | 4517 ft | 268 kts | 260° |
| 2026-05-07 14:48 | 22.11850 | 113.85353 | 4215 ft | 268 kts | 260° |
| 2026-05-07 14:49 | 22.11560 | 113.83358 | 3910 ft | 267 kts | 260° |
| 2026-05-07 14:49 | 22.11273 | 113.81377 | 3608 ft | 267 kts | 260° |
| 2026-05-07 14:49 | 22.11062 | 113.79390 | 3276 ft | 268 kts | 272° |
| 2026-05-07 14:49 | 22.11681 | 113.77518 | 2962 ft | 268 kts | 307° |
| 2026-05-07 14:50 | 22.13108 | 113.76272 | 2726 ft | 263 kts | 335° |
| 2026-05-07 14:50 | 22.14772 | 113.75490 | 2493 ft | 259 kts | 337° |
| 2026-05-07 14:50 | 22.16421 | 113.74714 | 2250 ft | 256 kts | 336° |
| 2026-05-07 14:50 | 22.18061 | 113.73921 | 2029 ft | 253 kts | 336° |
| 2026-05-07 14:51 | 22.19635 | 113.73146 | 1977 ft | 241 kts | 336° |
| 2026-05-07 14:51 | 22.21130 | 113.72402 | 1969 ft | 229 kts | 335° |
| 2026-05-07 14:51 | 22.22584 | 113.71684 | 1973 ft | 227 kts | 339° |
| 2026-05-07 14:51 | 22.24125 | 113.71484 | 1955 ft | 224 kts | 18° |
| 2026-05-07 14:52 | 22.25415 | 113.72372 | 1979 ft | 221 kts | 48° |
| 2026-05-07 14:52 | 22.26446 | 113.73609 | 1980 ft | 221 kts | 50° |
| 2026-05-07 14:52 | 22.27467 | 113.74848 | 1965 ft | 213 kts | 56° |
| 2026-05-07 14:52 | 22.28191 | 113.76163 | 1996 ft | 194 kts | 67° |
| 2026-05-07 14:53 | 22.28689 | 113.77447 | 1985 ft | 180 kts | 72° |
| 2026-05-07 14:53 | 22.29109 | 113.78716 | 1790 ft | 178 kts | 74° |
| 2026-05-07 14:53 | 22.29507 | 113.79977 | 1560 ft | 175 kts | 74° |
| 2026-05-07 14:53 | 22.29895 | 113.81186 | 1296 ft | 166 kts | 73° |
| 2026-05-07 14:54 | 22.30269 | 113.82310 | 1118 ft | 153 kts | 72° |
| 2026-05-07 14:54 | 22.30606 | 113.83395 | 963 ft | 150 kts | 75° |
| 2026-05-07 14:54 | 22.30914 | 113.84461 | 763 ft | 149 kts | 73° |
| 2026-05-07 14:54 | 22.31269 | 113.85507 | 546 ft | 148 kts | 70° |
| 2026-05-07 14:55 | 22.31627 | 113.86550 | 403 ft | 148 kts | 73° |
| 2026-05-07 14:55 | 22.31951 | 113.87598 | 217 ft | 147 kts | 71° |
| 2026-05-07 14:55 | 22.32293 | 113.88631 | 61 ft | 145 kts | 72° |
| 2026-05-07 14:55 | 22.32601 | 113.89601 | 40 ft | 119 kts | 72° |
| 2026-05-07 14:56 | 22.32815 | 113.90260 | 40 ft | 66 kts | 71° |
| 2026-05-07 14:56 | 22.32927 | 113.90611 | 39 ft | 45 kts | 77° |
| 2026-05-07 14:56 | 22.32912 | 113.90942 | 40 ft | 43 kts | 102° |
| 2026-05-07 14:56 | 22.32941 | 113.91229 | 40 ft | 39 kts | 70° |
| 2026-05-07 14:57 | 22.33034 | 113.91505 | 39 ft | 40 kts | 71° |
| 2026-05-07 14:57 | 22.33124 | 113.91790 | 39 ft | 41 kts | 73° |
| 2026-05-07 14:57 | 22.33201 | 113.92058 | 39 ft | 27 kts | 74° |
| 2026-05-07 14:57 | 22.33157 | 113.92141 | 39 ft | 14 kts | 170° |
| 2026-05-07 14:58 | 22.33051 | 113.92167 | 39 ft | 17 kts | 161° |
| 2026-05-07 14:58 | 22.32929 | 113.92213 | 39 ft | 20 kts | 160° |
| 2026-05-07 14:58 | 22.32793 | 113.92266 | 39 ft | 22 kts | 161° |
| 2026-05-07 14:58 | 22.32642 | 113.92322 | 40 ft | 24 kts | 160° |
| 2026-05-07 14:59 | 22.32477 | 113.92385 | 39 ft | 26 kts | 160° |
| 2026-05-07 14:59 | 22.32302 | 113.92451 | 40 ft | 23 kts | 161° |
| 2026-05-07 14:59 | 22.32180 | 113.92501 | 39 ft | 10 kts | 148° |
| 2026-05-07 14:59 | 22.32168 | 113.92568 | 39 ft | 12 kts | 76° |
| 2026-05-07 15:00 | 22.32188 | 113.92662 | 40 ft | 13 kts | 105° |
| 2026-05-07 15:00 | 22.32105 | 113.92723 | 39 ft | 16 kts | 161° |
| 2026-05-07 15:00 | 22.31990 | 113.92769 | 39 ft | 19 kts | 158° |
| 2026-05-07 15:00 | 22.31890 | 113.92785 | 39 ft | 14 kts | 207° |
| 2026-05-07 15:01 | 22.31842 | 113.92690 | 39 ft | 16 kts | 252° |
| 2026-05-07 15:01 | 22.31802 | 113.92565 | 39 ft | 19 kts | 251° |
| 2026-05-07 15:01 | 22.31757 | 113.92426 | 39 ft | 21 kts | 251° |
| 2026-05-07 15:01 | 22.31707 | 113.92271 | 39 ft | 23 kts | 251° |
| 2026-05-07 15:02 | 22.31666 | 113.92144 | 39 ft | 9 kts | 250° |
| 2026-05-07 15:02 | 22.31649 | 113.92091 | 39 ft | 7 kts | 250° |
| 2026-05-07 15:02 | 22.31622 | 113.92041 | 39 ft | 6 kts | 207° |
| 2026-05-07 15:02 | 22.31566 | 113.92045 | 39 ft | 10 kts | 163° |
| 2026-05-07 15:03 | 22.31483 | 113.92073 | 40 ft | 14 kts | 161° |
| 2026-05-07 15:03 | 22.31408 | 113.92143 | 40 ft | 16 kts | 118° |
| 2026-05-07 15:03 | 22.31356 | 113.92257 | 40 ft | 18 kts | 116° |
| 2026-05-07 15:03 | 22.31300 | 113.92380 | 40 ft | 17 kts | 115° |
| 2026-05-07 15:04 | 22.31267 | 113.92456 | 40 ft | 7 kts | 115° |
| 2026-05-07 15:04 | 22.31266 | 113.92488 | 40 ft | 5 kts | 58° |
| 2026-05-07 15:04 | 22.31304 | 113.92520 | 40 ft | 4 kts | 28° |
| 2026-05-07 15:04 | 22.31317 | 113.92527 | 40 ft | 0 kts | 27° |
| 2026-05-07 15:05 | 22.31324 | 113.92531 | 40 ft | 0 kts | 27° |